Time;durP1;ratioP1;P1;durP2;ratioP2;P2;SDS_P1;SDS_P2;PMS_P1;PMS_P2;Temp;Humidity;BMP_temperature;BMP_pressure;BME280_temperature;BME280_humidity;BME280_pressure;Samples;Min_cycle;Max_cycle;Signal;HPM_P1;HPM_P2
2021/09/15 00:00:05;;;;;;;13.48;7.32;;;;;;;19.03;95.39;101004.31;4974007;28;20042;-60
2021/09/15 00:02:38;;;;;;;10.90;6.72;;;;;;;19.02;95.47;101000.72;4972615;28;20057;-60
2021/09/15 00:05:07;;;;;;;11.57;7.13;;;;;;;19.02;95.61;100997.16;4974137;28;20053;-60
2021/09/15 00:07:34;;;;;;;10.45;6.78;;;;;;;19.01;95.57;100999.09;4967512;28;20051;-60
2021/09/15 00:10:03;;;;;;;14.35;6.95;;;;;;;19.00;95.62;100994.72;4966173;28;20043;-61
2021/09/15 00:12:30;;;;;;;12.50;8.20;;;;;;;18.99;95.35;100993.09;4968588;28;20145;-60
2021/09/15 00:14:58;;;;;;;11.45;7.32;;;;;;;19.03;95.31;100996.84;4973651;28;20049;-60
2021/09/15 00:17:26;;;;;;;8.85;6.20;;;;;;;19.04;95.29;100992.94;4972032;28;20065;-61
2021/09/15 00:19:54;;;;;;;12.10;7.45;;;;;;;19.06;95.00;100998.16;4973871;28;20042;-60
2021/09/15 00:22:21;;;;;;;10.77;7.45;;;;;;;19.05;94.90;101002.88;4963183;28;20039;-61
2021/09/15 00:24:49;;;;;;;9.98;6.80;;;;;;;19.07;94.92;100997.00;4972834;28;20054;-60
2021/09/15 00:27:16;;;;;;;13.93;7.43;;;;;;;19.05;94.64;100989.06;4965226;28;20043;-60
2021/09/15 00:29:44;;;;;;;11.05;6.40;;;;;;;19.05;94.56;101002.03;4969760;28;20046;-59
2021/09/15 00:32:11;;;;;;;11.48;6.78;;;;;;;19.03;94.73;100996.84;4973337;28;20047;-61
2021/09/15 00:34:39;;;;;;;11.15;7.07;;;;;;;19.05;94.42;100996.50;4972186;28;20059;-60
2021/09/15 00:37:09;;;;;;;10.55;5.65;;;;;;;19.05;94.60;101002.88;4972194;28;20450;-60
2021/09/15 00:39:36;;;;;;;12.18;6.45;;;;;;;19.05;94.19;101005.63;4973526;28;20055;-60
2021/09/15 00:42:04;;;;;;;10.02;6.57;;;;;;;19.05;94.27;101000.09;4971960;28;20043;-61
2021/09/15 00:44:32;;;;;;;11.68;7.05;;;;;;;19.06;94.07;101001.72;4972066;28;20047;-59
2021/09/15 00:47:00;;;;;;;11.88;6.78;;;;;;;19.07;93.99;100994.25;4972218;28;20080;-58
2021/09/15 00:49:27;;;;;;;12.02;6.60;;;;;;;19.06;93.89;100987.91;4973535;28;20053;-59
2021/09/15 00:51:55;;;;;;;10.50;5.95;;;;;;;19.05;94.06;100990.97;4972133;28;20070;-59
2021/09/15 00:54:23;;;;;;;9.23;5.85;;;;;;;19.02;93.98;100992.44;4972043;28;20047;-60
2021/09/15 00:56:51;;;;;;;11.07;6.82;;;;;;;19.01;94.42;100993.59;4972046;28;20039;-60
2021/09/15 00:59:19;;;;;;;11.38;6.18;;;;;;;19.01;94.10;100988.06;4967221;28;20445;-60
2021/09/15 01:01:47;;;;;;;11.43;6.20;;;;;;;19.01;93.90;100993.59;4968094;28;20067;-59
2021/09/15 01:04:17;;;;;;;10.27;6.55;;;;;;;19.03;94.16;100990.50;4980207;28;20062;-60
2021/09/15 01:06:49;;;;;;;10.57;6.22;;;;;;;19.01;94.02;100990.81;4970343;28;20058;-61
2021/09/15 01:09:18;;;;;;;9.30;6.15;;;;;;;18.99;94.01;100989.53;4967021;28;20047;-61
2021/09/15 01:11:47;;;;;;;11.02;6.25;;;;;;;18.97;94.16;100980.75;4985991;28;20043;-60
2021/09/15 01:14:25;;;;;;;10.80;5.97;;;;;;;18.94;94.20;100985.75;4937514;28;20138;-60
2021/09/15 01:17:02;;;;;;;9.13;5.93;;;;;;;18.93;94.29;100991.63;4969676;28;20055;-61
2021/09/15 01:19:57;;;;;;;9.65;6.32;;;;;;;18.91;94.42;100991.94;4944673;28;20178;-59
2021/09/15 01:22:38;;;;;;;10.88;5.95;;;;;;;18.91;94.50;100996.66;4957743;28;20122;-60
2021/09/15 01:25:35;;;;;;;9.07;6.63;;;;;;;18.91;94.61;100996.66;4913114;29;20423;-61
2021/09/15 01:28:21;;;;;;;12.45;6.63;;;;;;;18.91;94.56;100986.41;4906921;29;20555;-61
2021/09/15 01:31:05;;;;;;;9.27;6.13;;;;;;;18.91;94.24;100988.38;4885785;29;20131;-59
2021/09/15 01:33:32;;;;;;;10.40;6.57;;;;;;;18.89;94.49;100982.34;4912884;29;20064;-58
2021/09/15 01:36:00;;;;;;;14.15;6.80;;;;;;;18.87;94.45;100988.19;4913287;29;20544;-60
2021/09/15 01:38:27;;;;;;;10.02;6.55;;;;;;;18.84;94.81;100983.31;4903876;29;20059;-60
2021/09/15 01:40:58;;;;;;;11.10;6.30;;;;;;;18.82;94.90;100977.28;4913042;29;20046;-60
2021/09/15 01:43:27;;;;;;;11.80;6.80;;;;;;;18.80;94.92;100973.22;4912561;29;20060;-61
2021/09/15 01:45:54;;;;;;;10.52;6.30;;;;;;;18.79;95.31;100977.94;4912902;29;20203;-59
2021/09/15 01:48:23;;;;;;;9.75;6.60;;;;;;;18.79;95.24;100966.09;4910662;29;20138;-60
2021/09/15 01:50:50;;;;;;;11.40;6.70;;;;;;;18.78;95.33;100961.69;4912816;29;20407;-60
2021/09/15 01:53:18;;;;;;;11.90;6.40;;;;;;;18.74;95.10;100965.06;4897337;29;20500;-61
2021/09/15 01:55:46;;;;;;;10.93;6.13;;;;;;;18.73;95.25;100959.84;4912903;29;20053;-61
2021/09/15 01:58:34;;;;;;;10.55;6.05;;;;;;;18.71;95.45;100962.09;4888940;29;20044;-60
2021/09/15 02:01:15;;;;;;;12.05;6.57;;;;;;;18.70;95.49;100958.53;4920915;28;20051;-60
2021/09/15 02:04:08;;;;;;;10.27;5.90;;;;;;;18.70;95.58;100958.53;4971421;28;20141;-60
2021/09/15 02:06:49;;;;;;;10.23;6.55;;;;;;;18.70;95.46;100950.25;4958638;28;20046;-59
2021/09/15 02:09:33;;;;;;;10.70;6.32;;;;;;;18.71;95.61;100960.19;4963023;28;20062;-60
2021/09/15 02:12:18;;;;;;;9.43;6.57;;;;;;;18.71;95.51;100960.19;4960380;28;20043;-60
2021/09/15 02:14:46;;;;;;;11.40;6.40;;;;;;;18.73;95.48;100963.41;4991193;28;20399;-60
2021/09/15 02:17:15;;;;;;;11.68;7.25;;;;;;;18.74;95.54;100954.00;4991185;28;20042;-60
2021/09/15 02:19:46;;;;;;;11.05;7.30;;;;;;;18.75;95.48;100954.81;4953913;28;20049;-60
2021/09/15 02:22:19;;;;;;;11.18;6.80;;;;;;;18.74;95.54;100942.97;4991100;28;20030;-60
2021/09/15 02:25:06;;;;;;;10.43;6.60;;;;;;;18.73;95.47;100952.38;4975464;28;20497;-60
2021/09/15 02:27:52;;;;;;;10.80;6.95;;;;;;;18.74;95.59;100942.16;4975588;28;20529;-60
2021/09/15 02:30:31;;;;;;;11.57;7.30;;;;;;;18.74;95.49;100942.16;4962318;28;20494;-61
2021/09/15 02:33:07;;;;;;;10.35;7.22;;;;;;;18.75;95.38;100946.53;4974354;28;20129;-60
2021/09/15 02:35:49;;;;;;;12.32;7.30;;;;;;;18.73;95.48;100941.31;4964049;28;20051;-60
2021/09/15 02:38:34;;;;;;;;;;;;;;;18.72;95.38;100939.72;4974985;28;20053;-60
2021/09/15 02:41:20;;;;;;;11.10;7.05;;;;;;;18.71;95.44;100940.88;4970307;28;20016;-60
2021/09/15 02:43:59;;;;;;;12.27;7.20;;;;;;;18.73;95.57;100946.03;4974448;28;20070;-60
2021/09/15 02:47:01;;;;;;;13.27;7.75;;;;;;;18.71;95.58;100946.38;4974325;28;20511;-60
2021/09/15 02:49:55;;;;;;;13.68;7.47;;;;;;;18.71;95.77;100946.38;4973521;28;20138;-61
2021/09/15 02:52:49;;;;;;;10.43;7.10;;;;;;;18.73;95.74;100948.81;4974128;28;20041;-60
2021/09/15 02:55:36;;;;;;;14.13;7.68;;;;;;;18.71;95.69;100940.88;4973129;28;20043;-60
2021/09/15 02:58:28;;;;;;;10.20;7.45;;;;;;;18.70;95.84;100939.22;4962795;28;20049;-60
2021/09/15 03:01:04;;;;;;;12.85;7.65;;;;;;;18.70;95.79;100930.94;4973341;28;20047;-59
2021/09/15 03:03:52;;;;;;;11.98;7.43;;;;;;;18.71;96.11;100920.69;4975098;28;20066;-60
2021/09/15 03:06:38;;;;;;;10.50;7.50;;;;;;;18.69;96.15;100929.31;4975141;28;20049;-61
2021/09/15 03:09:09;;;;;;;11.93;7.03;;;;;;;18.68;96.11;100919.41;4966593;28;20047;-61
2021/09/15 03:11:37;;;;;;;15.45;7.63;;;;;;;18.68;96.32;100910.31;4980667;28;20043;-61
2021/09/15 03:14:04;;;;;;;11.70;7.18;;;;;;;18.69;96.21;100917.47;4981138;28;20081;-59
2021/09/15 03:16:33;;;;;;;11.48;7.38;;;;;;;18.70;96.49;100917.13;4973656;28;20469;-59
2021/09/15 03:19:06;;;;;;;10.52;7.50;;;;;;;18.71;96.33;100910.50;4972058;28;20077;-59
2021/09/15 03:21:39;;;;;;;14.63;7.88;;;;;;;18.72;96.29;100905.78;4986488;28;20047;-61
2021/09/15 03:24:07;;;;;;;13.27;7.65;;;;;;;18.71;96.13;100916.03;4973560;28;20050;-59
2021/09/15 03:26:36;;;;;;;12.88;7.20;;;;;;;18.70;96.22;100908.06;4972906;28;20092;-60
2021/09/15 03:29:03;;;;;;;12.38;7.22;;;;;;;18.69;96.37;100915.53;4989074;28;20047;-60
2021/09/15 03:31:33;;;;;;;12.60;7.22;;;;;;;18.68;96.25;100916.63;4989468;28;20043;-59
2021/09/15 03:34:00;;;;;;;11.02;7.10;;;;;;;18.69;96.29;100912.75;4974522;28;20137;-59
2021/09/15 03:36:28;;;;;;;10.65;7.15;;;;;;;18.68;96.29;100911.13;4973838;28;20117;-59
2021/09/15 03:38:56;;;;;;;12.65;8.00;;;;;;;18.69;96.46;100903.69;4987208;28;20049;-60
2021/09/15 03:41:25;;;;;;;15.45;7.97;;;;;;;18.66;96.53;100901.53;4981579;28;20046;-61
2021/09/15 03:43:54;;;;;;;13.70;7.88;;;;;;;18.64;96.62;100901.88;4989309;28;20490;-59
2021/09/15 03:46:22;;;;;;;11.32;7.65;;;;;;;18.63;96.80;100893.91;4972967;28;20054;-59
2021/09/15 03:48:50;;;;;;;12.88;7.53;;;;;;;18.63;97.10;100893.91;4969314;28;20060;-61
2021/09/15 03:51:18;;;;;;;13.40;7.88;;;;;;;18.62;96.98;100901.38;4973180;28;20038;-60
2021/09/15 03:53:45;;;;;;;11.48;7.50;;;;;;;18.62;97.14;100893.09;4972625;28;20053;-60
2021/09/15 03:56:13;;;;;;;14.52;7.85;;;;;;;18.65;97.14;100895.22;4972961;28;20494;-60
2021/09/15 03:58:42;;;;;;;14.73;7.53;;;;;;;18.67;97.00;100901.22;4971633;28;20078;-61
2021/09/15 04:01:11;;;;;;;12.10;7.45;;;;;;;18.67;97.08;100892.94;4985713;28;20121;-60
2021/09/15 04:03:41;;;;;;;14.93;7.65;;;;;;;18.69;96.75;100896.19;4973125;28;20046;-60
2021/09/15 04:06:08;;;;;;;11.35;7.47;;;;;;;18.70;96.67;100897.81;4972757;28;20505;-60
2021/09/15 04:08:36;;;;;;;12.25;7.85;;;;;;;18.72;96.76;100894.75;4971978;28;20088;-60
2021/09/15 04:11:04;;;;;;;13.35;7.72;;;;;;;18.71;96.77;100899.47;4972880;28;20486;-61
2021/09/15 04:13:31;;;;;;;13.57;8.13;;;;;;;18.72;96.60;100891.97;4974034;28;20066;-60
2021/09/15 04:15:59;;;;;;;11.68;7.35;;;;;;;18.71;96.58;100893.94;4972654;28;20043;-60
2021/09/15 04:18:27;;;;;;;14.63;8.43;;;;;;;18.72;96.68;100891.97;4971025;28;20097;-59
2021/09/15 04:20:55;;;;;;;12.93;7.80;;;;;;;18.72;96.46;100891.97;4973057;28;20091;-58
2021/09/15 04:23:33;;;;;;;12.55;8.25;;;;;;;18.71;96.60;100891.19;4959891;28;20077;-60
2021/09/15 04:31:34;;;;;;;15.50;8.40;;;;;;;18.71;96.54;100891.19;4988327;28;20173;-60
2021/09/15 04:34:04;;;;;;;15.68;8.32;;;;;;;18.71;96.69;100893.94;4971904;28;20054;-59
2021/09/15 04:36:48;;;;;;;12.13;8.20;;;;;;;18.68;96.79;100905.59;4970692;28;20114;-59
2021/09/15 04:39:16;;;;;;;12.93;8.60;;;;;;;18.69;96.87;100896.19;4955868;28;20129;-60
2021/09/15 04:41:43;;;;;;;16.13;8.65;;;;;;;18.70;97.01;100895.06;4972127;28;20118;-60
2021/09/15 04:44:11;;;;;;;14.23;9.02;;;;;;;18.71;96.89;100904.97;4972112;28;20074;-60
2021/09/15 04:46:39;;;;;;;13.73;9.73;;;;;;;18.71;96.95;100899.47;4988293;28;20054;-59
2021/09/15 04:49:07;;;;;;;14.32;9.00;;;;;;;18.72;97.07;100894.75;4986667;28;20409;-59
2021/09/15 04:51:39;;;;;;;14.57;9.25;;;;;;;18.71;97.11;100893.94;4971759;28;20134;-60
2021/09/15 04:54:08;;;;;;;12.48;8.77;;;;;;;18.70;97.27;100895.06;4972464;28;20046;-60
2021/09/15 04:56:40;;;;;;;15.95;8.85;;;;;;;18.70;97.38;100902.53;4972273;28;20046;-60
2021/09/15 04:59:07;;;;;;;12.32;9.02;;;;;;;18.67;97.51;100898.47;4960560;28;20047;-59
2021/09/15 05:01:35;;;;;;;11.57;8.82;;;;;;;18.64;97.63;100893.59;4987689;28;20133;-56
2021/09/15 05:04:03;;;;;;;13.95;9.10;;;;;;;18.62;97.90;100901.38;4963284;28;20094;-58
2021/09/15 05:06:31;;;;;;;13.07;8.60;;;;;;;18.63;97.96;100902.19;4971334;28;20071;-61
2021/09/15 05:08:59;;;;;;;14.85;9.27;;;;;;;18.64;98.11;100893.59;4962704;28;20510;-60
2021/09/15 05:11:27;;;;;;;16.17;9.77;;;;;;;18.66;98.24;100896.00;4976939;28;20039;-61
2021/09/15 05:13:54;;;;;;;14.18;9.40;;;;;;;18.67;98.02;100895.72;4973787;28;20138;-60
2021/09/15 05:16:23;;;;;;;13.98;8.90;;;;;;;18.68;98.08;100894.56;4972768;28;20085;-58
2021/09/15 05:18:50;;;;;;;14.13;8.80;;;;;;;18.68;98.19;100900.06;4970016;28;20606;-60
2021/09/15 05:21:18;;;;;;;12.75;9.23;;;;;;;18.68;98.17;100896.50;4969075;28;20045;-59
2021/09/15 05:23:46;;;;;;;12.75;9.13;;;;;;;18.67;98.27;100898.47;4971266;28;20117;-59
2021/09/15 05:26:33;;;;;;;15.99;9.01;;;;;;;18.66;98.44;100896.81;4945824;28;10000908;-54
2021/09/15 05:29:02;;;;;;;15.10;9.32;;;;;;;18.67;98.55;100892.94;4932908;28;20272;-59
2021/09/15 05:31:29;;;;;;;18.35;10.98;;;;;;;18.63;98.83;100891.16;4980094;28;20055;-60
2021/09/15 05:33:57;;;;;;;17.05;10.13;;;;;;;18.57;99.68;100881.38;4984803;28;20137;-59
2021/09/15 05:36:25;;;;;;;14.15;9.25;;;;;;;18.52;100.00;100885.13;4985176;28;20072;-60
2021/09/15 05:38:53;;;;;;;17.05;10.07;;;;;;;18.50;100.00;100882.66;4963536;28;20054;-60
2021/09/15 05:41:25;;;;;;;14.15;9.43;;;;;;;18.52;100.00;100885.13;4969120;28;20039;-59
2021/09/15 05:43:53;;;;;;;15.00;9.38;;;;;;;18.52;100.00;100885.13;4969037;28;20134;-60
2021/09/15 05:46:23;;;;;;;15.65;9.32;;;;;;;18.54;100.00;100888.34;4978234;28;20038;-59
2021/09/15 05:48:51;;;;;;;15.30;9.23;;;;;;;18.56;100.00;100899.06;4973998;28;20098;-60
2021/09/15 05:51:20;;;;;;;15.63;10.30;;;;;;;18.55;100.00;100895.50;4971737;28;20065;-59
2021/09/15 05:53:49;;;;;;;13.45;9.52;;;;;;;18.53;100.00;100904.09;4972891;28;20055;-60
2021/09/15 05:56:16;;;;;;;15.25;9.90;;;;;;;18.52;100.00;100896.97;4972664;28;20042;-60
2021/09/15 05:58:44;;;;;;;13.85;9.73;;;;;;;18.52;100.00;100898.91;4971309;28;20521;-59
2021/09/15 06:01:12;;;;;;;15.02;9.35;;;;;;;18.51;100.00;100905.56;4985592;28;20051;-59
2021/09/15 06:03:40;;;;;;;14.52;8.75;;;;;;;18.53;100.00;100906.06;4988344;28;20471;-60
2021/09/15 06:06:16;;;;;;;15.18;9.30;;;;;;;18.56;100.00;100907.34;4973171;28;20078;-59
2021/09/15 06:08:44;;;;;;;15.25;9.63;;;;;;;18.56;100.00;100908.16;4966484;28;20047;-59
2021/09/15 06:11:12;;;;;;;17.23;9.70;;;;;;;18.58;100.00;100900.38;4984906;28;20709;-60
2021/09/15 06:13:39;;;;;;;13.90;9.57;;;;;;;18.58;100.00;100911.41;4974392;28;20098;-59
2021/09/15 06:16:08;;;;;;;14.13;8.60;;;;;;;18.60;100.00;100914.69;4985707;28;20055;-60
2021/09/15 06:18:38;;;;;;;14.73;10.00;;;;;;;18.61;100.00;100916.28;4947671;28;20129;-59
2021/09/15 06:21:18;;;;;;;18.13;10.52;;;;;;;18.62;100.00;100922.66;4972119;28;20043;-58
2021/09/15 06:24:00;;;;;;;14.13;9.68;;;;;;;18.62;100.00;100906.09;4989100;28;20051;-60
2021/09/15 06:26:28;;;;;;;17.45;10.68;;;;;;;18.61;100.00;100915.47;4988619;28;20038;-62
2021/09/15 06:28:56;;;;;;;16.65;10.90;;;;;;;18.58;100.00;100914.19;4974034;28;20535;-61
2021/09/15 06:31:24;;;;;;;16.20;11.45;;;;;;;18.55;100.00;100912.06;4973383;28;20069;-61
2021/09/15 06:33:52;;;;;;;17.90;10.27;;;;;;;18.54;100.00;100913.19;4972888;28;20059;-61
2021/09/15 06:36:20;;;;;;;15.50;10.45;;;;;;;18.55;100.00;100912.06;4972352;28;20030;-63
2021/09/15 06:38:48;;;;;;;16.45;10.10;;;;;;;18.57;100.00;100909.81;4967801;28;20069;-60
2021/09/15 06:41:15;;;;;;;16.80;10.23;;;;;;;18.57;100.00;100912.56;4978725;28;20051;-60
2021/09/15 06:43:44;;;;;;;15.20;10.05;;;;;;;18.58;100.00;100914.19;4971841;28;20051;-60
2021/09/15 06:46:12;;;;;;;18.05;10.45;;;;;;;18.59;100.00;100929.63;4972743;28;20102;-61
2021/09/15 06:48:40;;;;;;;15.27;9.93;;;;;;;18.59;100.00;100924.09;4970405;28;20043;-60
2021/09/15 06:51:07;;;;;;;17.77;11.13;;;;;;;18.60;100.00;100922.97;4974515;28;20114;-60
2021/09/15 06:53:35;;;;;;;16.20;10.73;;;;;;;18.61;100.00;100927.34;4975092;28;20465;-60
2021/09/15 06:56:04;;;;;;;18.63;10.18;;;;;;;18.61;100.00;100935.59;4974442;28;20047;-60
2021/09/15 06:58:32;;;;;;;16.25;10.60;;;;;;;18.60;100.00;100928.47;4972564;28;20047;-60
2021/09/15 07:01:00;;;;;;;16.30;10.00;;;;;;;18.59;100.00;100935.16;4969732;28;20105;-60
2021/09/15 07:03:29;;;;;;;17.75;10.63;;;;;;;18.59;100.00;100932.38;4973827;28;20074;-59
2021/09/15 07:05:56;;;;;;;14.82;10.60;;;;;;;18.58;100.00;100927.16;4974791;28;20117;-59
2021/09/15 07:08:24;;;;;;;13.55;9.70;;;;;;;18.57;100.00;100931.88;4975188;28;20393;-60
2021/09/15 07:10:52;;;;;;;17.77;10.38;;;;;;;18.59;100.00;100929.63;4971127;28;20412;-60
2021/09/15 07:13:19;;;;;;;16.27;9.35;;;;;;;18.63;100.00;100941.63;4973328;28;20074;-59
2021/09/15 07:15:47;;;;;;;13.13;10.27;;;;;;;18.65;100.00;100938.56;4974566;28;20066;-59
2021/09/15 07:18:14;;;;;;;14.43;10.10;;;;;;;18.65;100.00;100942.13;4973061;28;20066;-59
2021/09/15 07:20:42;;;;;;;16.38;10.88;;;;;;;18.63;100.00;100949.91;4973827;28;20039;-60
2021/09/15 07:23:10;;;;;;;15.70;11.00;;;;;;;18.62;100.00;100942.78;4974501;28;20496;-59
2021/09/15 07:25:37;;;;;;;14.13;10.63;;;;;;;18.61;100.00;100943.09;4974282;28;20435;-59
2021/09/15 07:28:05;;;;;;;14.23;11.07;;;;;;;18.60;100.00;100942.28;4974525;28;20409;-59
2021/09/15 07:30:33;;;;;;;16.17;11.57;;;;;;;18.59;100.00;100939.81;4972272;28;20111;-57
2021/09/15 07:33:01;;;;;;;15.05;10.68;;;;;;;18.59;100.00;100939.81;4974181;28;20051;-61
2021/09/15 07:35:29;;;;;;;14.35;11.20;;;;;;;18.60;100.00;100945.03;4974385;28;20057;-59
2021/09/15 07:37:56;;;;;;;16.98;12.32;;;;;;;18.61;100.00;100943.88;4985703;28;20039;-60
2021/09/15 07:40:24;;;;;;;16.45;12.98;;;;;;;18.60;100.00;100936.75;4971302;28;20080;-60
2021/09/15 07:42:52;;;;;;;19.60;12.68;;;;;;;18.65;100.00;100939.38;4973457;28;20043;-60
2021/09/15 07:45:20;;;;;;;16.30;12.05;;;;;;;18.69;100.00;100937.59;4973620;28;20114;-59
2021/09/15 07:47:47;;;;;;;15.98;12.40;;;;;;;18.72;100.00;100942.47;4972672;28;20054;-59
2021/09/15 07:50:15;;;;;;;18.35;14.45;;;;;;;18.75;100.00;100943.78;4972160;28;20054;-60
2021/09/15 07:52:43;;;;;;;18.52;14.18;;;;;;;18.74;100.00;100942.97;4972852;28;20069;-59
2021/09/15 07:55:12;;;;;;;25.17;17.63;;;;;;;18.76;100.00;100947.34;4973862;28;20051;-58
2021/09/15 07:57:44;;;;;;;20.80;16.38;;;;;;;18.75;100.00;100949.31;4974052;28;20050;-62
2021/09/15 08:00:17;;;;;;;21.83;17.35;;;;;;;18.76;100.00;100955.63;4973371;28;20051;-60
2021/09/15 08:02:46;;;;;;;18.75;15.70;;;;;;;18.77;100.00;100947.06;4972278;28;20059;-61
2021/09/15 08:05:14;;;;;;;20.05;16.52;;;;;;;18.79;100.00;100946.75;4972766;28;20106;-61
2021/09/15 08:07:42;;;;;;;27.35;18.10;;;;;;;18.79;100.00;100935.72;4973541;28;20043;-61
2021/09/15 08:10:10;;;;;;;26.77;19.25;;;;;;;18.81;100.00;100933.44;4973287;28;20501;-61
2021/09/15 08:12:38;;;;;;;23.10;17.58;;;;;;;18.82;100.00;100927.59;4963813;28;20053;-59
2021/09/15 08:15:06;;;;;;;24.35;19.65;;;;;;;18.86;100.00;100933.31;4961568;28;20258;-59
2021/09/15 08:17:33;;;;;;;25.83;20.73;;;;;;;18.87;100.00;100935.72;4973754;28;20042;-60
2021/09/15 08:20:06;;;;;;;26.05;20.63;;;;;;;18.87;100.00;100923.88;4973537;28;20094;-60
2021/09/15 08:22:39;;;;;;;27.90;22.75;;;;;;;18.87;100.00;100927.44;4968519;28;20118;-59
2021/09/15 08:25:07;;;;;;;29.75;23.10;;;;;;;18.88;100.00;100929.09;4970932;28;20066;-60
2021/09/15 08:27:35;;;;;;;29.38;22.83;;;;;;;18.91;100.00;100925.66;4973593;28;20077;-59
2021/09/15 08:30:04;;;;;;;26.83;22.33;;;;;;;18.95;100.00;100928.59;4972985;28;20134;-61
2021/09/15 08:32:31;;;;;;;27.40;21.92;;;;;;;18.98;100.00;100929.88;4972058;28;20055;-60
2021/09/15 08:34:59;;;;;;;30.35;23.23;;;;;;;19.00;100.00;100931.22;4969219;28;20066;-61
2021/09/15 08:37:31;;;;;;;29.80;23.30;;;;;;;19.02;100.00;100923.41;4973105;28;20039;-61
2021/09/15 08:39:59;;;;;;;26.92;22.45;;;;;;;19.04;100.00;100926.66;4973290;28;20043;-61
2021/09/15 08:42:27;;;;;;;31.98;25.45;;;;;;;19.06;100.00;100935.44;4973045;28;20049;-60
2021/09/15 08:44:55;;;;;;;28.83;24.60;;;;;;;19.09;100.00;100933.97;4970811;28;20517;-59
2021/09/15 08:47:26;;;;;;;26.55;21.75;;;;;;;19.10;100.00;100936.44;4965666;28;20490;-60
2021/09/15 08:49:54;;;;;;;25.63;20.33;;;;;;;19.12;100.00;100938.84;4972887;28;20047;-59
2021/09/15 08:52:22;;;;;;;28.83;24.15;;;;;;;19.13;100.00;100935.78;4972857;28;20093;-60
2021/09/15 08:54:49;;;;;;;33.17;27.20;;;;;;;19.11;100.00;100935.28;4972060;28;20043;-60
2021/09/15 08:57:17;;;;;;;37.78;27.83;;;;;;;19.10;100.00;100933.66;4972673;28;20050;-60
2021/09/15 08:59:44;;;;;;;33.33;25.38;;;;;;;19.10;100.00;100938.38;4972373;28;20097;-60
2021/09/15 09:02:13;;;;;;;36.75;29.77;;;;;;;19.08;100.00;100938.69;4973005;28;20101;-59
2021/09/15 09:04:53;;;;;;;42.10;35.17;;;;;;;19.07;100.00;100936.25;4963167;28;20069;-60
2021/09/15 09:07:22;;;;;;;41.55;34.53;;;;;;;19.05;100.00;100941.28;4971084;28;20129;-59
2021/09/15 09:09:52;;;;;;;42.75;33.33;;;;;;;19.06;100.00;100940.16;4971423;28;20047;-60
2021/09/15 09:12:22;;;;;;;46.45;35.10;;;;;;;19.06;100.00;100943.72;4970750;28;20050;-60
2021/09/15 09:14:51;;;;;;;43.63;34.60;;;;;;;19.09;100.00;100942.25;4969026;28;20042;-57
2021/09/15 09:17:33;;;;;;;43.72;35.25;;;;;;;19.10;100.00;100950.22;4971897;28;20471;-59
2021/09/15 09:20:27;;;;;;;43.50;35.92;;;;;;;19.09;100.00;100950.53;4970541;28;20039;-59
2021/09/15 09:23:06;;;;;;;38.75;31.35;;;;;;;19.09;100.00;100951.34;4970756;28;20639;-60
2021/09/15 09:25:55;;;;;;;41.80;34.35;;;;;;;19.11;100.00;100946.31;4970645;28;20053;-59
2021/09/15 09:28:40;;;;;;;49.70;38.22;;;;;;;19.18;100.00;100961.63;4972011;28;20130;-55
2021/09/15 09:31:10;;;;;;;48.17;38.70;;;;;;;19.22;100.00;100957.91;4972447;28;20043;-57
2021/09/15 09:33:45;;;;;;;51.43;40.47;;;;;;;19.27;100.00;100959.69;4985578;28;20113;-58
2021/09/15 09:36:13;;;;;;;51.00;39.95;;;;;;;19.30;100.00;100957.06;4972124;28;20385;-61
2021/09/15 09:38:43;;;;;;;53.92;41.03;;;;;;;19.35;100.00;100962.44;4972246;28;20063;-60
2021/09/15 09:41:15;;;;;;;50.25;39.05;;;;;;;19.38;100.00;100960.97;4955336;28;20078;-58
2021/09/15 09:43:46;;;;;;;53.55;42.60;;;;;;;19.38;100.00;100949.91;4970540;28;20449;-60
2021/09/15 09:46:18;;;;;;;54.22;41.88;;;;;;;19.34;100.00;100949.78;4972725;28;20045;-57
2021/09/15 09:48:56;;;;;;;53.30;41.40;;;;;;;19.33;100.00;100953.66;4972476;28;20516;-60
2021/09/15 09:51:29;;;;;;;54.13;40.50;;;;;;;19.31;100.00;100942.13;4964250;28;20447;-60
2021/09/15 09:54:22;;;;;;;38.00;31.25;;;;;;;19.33;100.00;100947.31;4970915;28;20042;-54
2021/09/15 09:56:56;;;;;;;51.40;39.13;;;;;;;19.32;100.00;100956.75;4959666;28;20098;-59
2021/09/15 09:59:28;;;;;;;49.60;39.25;;;;;;;19.30;100.00;100953.50;4968452;28;20545;-59
2021/09/15 10:01:59;;;;;;;47.83;38.80;;;;;;;19.28;100.00;100959.34;4972306;28;20043;-58
2021/09/15 10:04:28;;;;;;;50.63;38.83;;;;;;;19.27;100.00;100971.53;4970718;28;20485;-59
2021/09/15 10:06:56;;;;;;;58.22;43.40;;;;;;;19.21;100.00;100972.81;4971859;28;20506;-59
2021/09/15 10:09:25;;;;;;;56.22;41.53;;;;;;;19.18;100.00;100980.97;4971883;28;20054;-59
2021/09/15 10:11:56;;;;;;;49.25;38.53;;;;;;;19.12;100.00;100986.63;4971660;28;20059;-54
2021/09/15 10:14:26;;;;;;;52.15;39.42;;;;;;;19.08;100.00;100984.84;4962158;28;20047;-58
2021/09/15 10:17:01;;;;;;;48.88;37.17;;;;;;;19.09;100.00;100998.31;4961433;28;20059;-57
2021/09/15 10:19:32;;;;;;;49.17;36.00;;;;;;;19.09;100.00;100998.31;4972214;28;20114;-58
2021/09/15 10:22:04;;;;;;;43.80;32.78;;;;;;;19.07;99.49;101000.59;4970513;28;20097;-57
2021/09/15 10:24:51;;;;;;;42.88;34.35;;;;;;;19.05;98.19;100997.34;4965430;28;20036;-59
2021/09/15 10:27:22;;;;;;;44.40;34.10;;;;;;;19.07;97.95;101000.59;4958630;28;20050;-58
2021/09/15 10:30:06;;;;;;;44.47;33.30;;;;;;;19.11;96.36;101000.75;4970752;28;20102;-59
2021/09/15 10:32:38;;;;;;;35.85;29.98;;;;;;;19.12;96.49;101003.22;4978082;28;20038;-59
2021/09/15 10:35:08;;;;;;;38.72;31.05;;;;;;;19.20;95.90;101011.84;4974816;28;20154;-59
2021/09/15 10:37:35;;;;;;;34.38;29.05;;;;;;;19.21;95.06;101000.44;4975150;28;20078;-58
2021/09/15 10:40:11;;;;;;;32.83;26.30;;;;;;;19.20;93.99;100998.84;4974663;28;20049;-58
2021/09/15 10:42:46;;;;;;;33.42;27.55;;;;;;;19.22;93.31;100990.19;4975626;28;20051;-58
2021/09/15 10:45:17;;;;;;;30.00;25.98;;;;;;;19.28;92.80;100991.69;4973820;28;20506;-57
2021/09/15 10:48:04;;;;;;;31.95;26.30;;;;;;;19.35;93.02;100989.25;4974917;28;20058;-59
2021/09/15 10:50:33;;;;;;;32.53;25.30;;;;;;;19.36;91.74;100996.41;4974863;28;20042;-59
2021/09/15 10:53:03;;;;;;;31.70;26.75;;;;;;;19.38;92.48;101005.19;4974247;28;20050;-57
2021/09/15 10:55:50;;;;;;;31.67;27.80;;;;;;;19.32;90.93;101003.72;4974739;28;20413;-59
2021/09/15 10:58:23;;;;;;;29.52;25.55;;;;;;;19.27;91.33;100999.16;4975096;28;20118;-58
2021/09/15 11:00:52;;;;;;;31.75;26.13;;;;;;;19.29;91.98;100993.31;4977108;28;20039;-61
2021/09/15 11:03:30;;;;;;;28.90;24.38;;;;;;;19.28;91.40;100994.44;4977330;28;20047;-61
2021/09/15 11:06:07;;;;;;;30.95;26.10;;;;;;;19.28;91.39;100994.44;4969545;28;20071;-61
2021/09/15 11:08:41;;;;;;;29.50;24.27;;;;;;;19.26;91.10;101002.25;4965298;28;20126;-54
2021/09/15 11:11:33;;;;;;;29.60;24.52;;;;;;;19.27;91.47;101001.94;4959458;28;20042;-53
2021/09/15 11:14:07;;;;;;;23.65;18.60;;;;;;;19.32;90.56;101006.50;4970464;28;20133;-58
2021/09/15 11:16:38;;;;;;;21.38;18.65;;;;;;;19.32;89.57;101010.06;4968582;28;20116;-59
2021/09/15 11:19:09;;;;;;;23.38;20.23;;;;;;;19.35;89.64;101005.84;4978245;28;20061;-56
2021/09/15 11:21:51;;;;;;;25.08;20.25;;;;;;;19.40;89.13;100999.34;4976467;28;20059;-59
2021/09/15 11:24:27;;;;;;;24.75;19.20;;;;;;;19.45;88.18;101001.94;4975700;28;20107;-60
2021/09/15 11:26:58;;;;;;;;;;;;;;;19.41;86.31;101007.31;4974725;28;20047;-55
2021/09/15 11:29:41;;;;;;;22.17;17.52;;;;;;;19.41;86.21;100999.03;4974580;28;19926;-60
2021/09/15 11:32:13;;;;;;;18.15;14.75;;;;;;;19.51;86.71;101003.44;4974859;28;20050;-60
2021/09/15 11:34:45;;;;;;;23.95;18.27;;;;;;;19.54;86.40;101002.78;4975110;28;20055;-57
2021/09/15 11:37:19;;;;;;;22.25;17.02;;;;;;;19.61;86.49;101005.06;4973154;28;20061;-60